<?xml version="1.0" encoding="UTF-8" standalone="no" ?>
<gpx xmlns="http://www.topografix.com/GPX/1/1" xmlns:xsi="http://www.w3.org/2001/XMLSchema-instance" xsi:schemaLocation="http://www.topografix.com/GPX/1/1 http://www.topografix.com/GPX/1/1/gpx.xsd" version="1.1" creator="VisuGPX - https://www.visugpx.com">
  <metadata>
    <name>J1 traversée aravis</name>
    <desc><![CDATA[J1 traversée aravis par PP]]></desc>
  </metadata>
  <trk>
    <name><![CDATA[J1 traversée aravis_2]]></name>
    <trkseg>
      <trkpt lat="46.02937" lon="6.57288">
        <ele>1294</ele>
        <time>2020-07-30T13:04:46Z</time>
      </trkpt>
      <trkpt lat="46.02911" lon="6.57308">
        <ele>1295</ele>
        <time>2020-07-30T13:05:01Z</time>
      </trkpt>
      <trkpt lat="46.02893" lon="6.57312">
        <ele>1295</ele>
        <time>2020-07-30T13:05:10Z</time>
      </trkpt>
      <trkpt lat="46.02863" lon="6.57313">
        <ele>1295</ele>
        <time>2020-07-30T13:05:25Z</time>
      </trkpt>
      <trkpt lat="46.02826" lon="6.57322">
        <ele>1297</ele>
        <time>2020-07-30T13:05:44Z</time>
      </trkpt>
      <trkpt lat="46.02803" lon="6.57323">
        <ele>1297</ele>
        <time>2020-07-30T13:05:55Z</time>
      </trkpt>
      <trkpt lat="46.02783" lon="6.57331">
        <ele>1299</ele>
        <time>2020-07-30T13:06:06Z</time>
      </trkpt>
      <trkpt lat="46.02715" lon="6.57386">
        <ele>1309</ele>
        <time>2020-07-30T13:06:45Z</time>
      </trkpt>
      <trkpt lat="46.027" lon="6.57402">
        <ele>1312</ele>
        <time>2020-07-30T13:06:54Z</time>
      </trkpt>
      <trkpt lat="46.02654" lon="6.57468">
        <ele>1328</ele>
        <time>2020-07-30T13:07:27Z</time>
      </trkpt>
      <trkpt lat="46.02632" lon="6.57477">
        <ele>1330</ele>
        <time>2020-07-30T13:07:38Z</time>
      </trkpt>
      <trkpt lat="46.02608" lon="6.57493">
        <ele>1334</ele>
        <time>2020-07-30T13:07:51Z</time>
      </trkpt>
      <trkpt lat="46.02588" lon="6.57514">
        <ele>1339</ele>
        <time>2020-07-30T13:08:04Z</time>
      </trkpt>
      <trkpt lat="46.02573" lon="6.57526">
        <ele>1343</ele>
        <time>2020-07-30T13:08:12Z</time>
      </trkpt>
      <trkpt lat="46.02561" lon="6.57541">
        <ele>1347</ele>
        <time>2020-07-30T13:08:20Z</time>
      </trkpt>
      <trkpt lat="46.02538" lon="6.57561">
        <ele>1354</ele>
        <time>2020-07-30T13:08:34Z</time>
      </trkpt>
      <trkpt lat="46.02534" lon="6.57568">
        <ele>1357</ele>
        <time>2020-07-30T13:08:37Z</time>
      </trkpt>
      <trkpt lat="46.02519" lon="6.5758">
        <ele>1362</ele>
        <time>2020-07-30T13:08:45Z</time>
      </trkpt>
      <trkpt lat="46.02491" lon="6.57596">
        <ele>1370</ele>
        <time>2020-07-30T13:09:00Z</time>
      </trkpt>
      <trkpt lat="46.02489" lon="6.57603">
        <ele>1373</ele>
        <time>2020-07-30T13:09:03Z</time>
      </trkpt>
      <trkpt lat="46.02501" lon="6.57608">
        <ele>1373</ele>
        <time>2020-07-30T13:09:09Z</time>
      </trkpt>
      <trkpt lat="46.02515" lon="6.576">
        <ele>1369</ele>
        <time>2020-07-30T13:09:17Z</time>
      </trkpt>
      <trkpt lat="46.0253" lon="6.57596">
        <ele>1366</ele>
        <time>2020-07-30T13:09:24Z</time>
      </trkpt>
      <trkpt lat="46.02543" lon="6.57586">
        <ele>1363</ele>
        <time>2020-07-30T13:09:32Z</time>
      </trkpt>
      <trkpt lat="46.02555" lon="6.57582">
        <ele>1361</ele>
        <time>2020-07-30T13:09:38Z</time>
      </trkpt>
      <trkpt lat="46.02574" lon="6.57581">
        <ele>1360</ele>
        <time>2020-07-30T13:09:48Z</time>
      </trkpt>
      <trkpt lat="46.02583" lon="6.57584">
        <ele>1360</ele>
        <time>2020-07-30T13:09:52Z</time>
      </trkpt>
      <trkpt lat="46.02587" lon="6.57589">
        <ele>1360</ele>
        <time>2020-07-30T13:09:55Z</time>
      </trkpt>
      <trkpt lat="46.02589" lon="6.57614">
        <ele>1363</ele>
        <time>2020-07-30T13:10:04Z</time>
      </trkpt>
      <trkpt lat="46.02566" lon="6.57638">
        <ele>1371</ele>
        <time>2020-07-30T13:10:18Z</time>
      </trkpt>
      <trkpt lat="46.02552" lon="6.57673">
        <ele>1381</ele>
        <time>2020-07-30T13:10:32Z</time>
      </trkpt>
      <trkpt lat="46.02536" lon="6.57696">
        <ele>1389</ele>
        <time>2020-07-30T13:10:43Z</time>
      </trkpt>
      <trkpt lat="46.02526" lon="6.5772">
        <ele>1396</ele>
        <time>2020-07-30T13:10:53Z</time>
      </trkpt>
      <trkpt lat="46.02515" lon="6.57739">
        <ele>1403</ele>
        <time>2020-07-30T13:11:01Z</time>
      </trkpt>
      <trkpt lat="46.02509" lon="6.57759">
        <ele>1408</ele>
        <time>2020-07-30T13:11:09Z</time>
      </trkpt>
      <trkpt lat="46.02501" lon="6.57763">
        <ele>1411</ele>
        <time>2020-07-30T13:11:13Z</time>
      </trkpt>
      <trkpt lat="46.02487" lon="6.57789">
        <ele>1420</ele>
        <time>2020-07-30T13:11:25Z</time>
      </trkpt>
      <trkpt lat="46.02474" lon="6.57785">
        <ele>1424</ele>
        <time>2020-07-30T13:11:31Z</time>
      </trkpt>
      <trkpt lat="46.02471" lon="6.57786">
        <ele>1425</ele>
        <time>2020-07-30T13:11:33Z</time>
      </trkpt>
      <trkpt lat="46.02471" lon="6.57796">
        <ele>1427</ele>
        <time>2020-07-30T13:11:36Z</time>
      </trkpt>
      <trkpt lat="46.02466" lon="6.57804">
        <ele>1431</ele>
        <time>2020-07-30T13:11:40Z</time>
      </trkpt>
      <trkpt lat="46.02466" lon="6.57813">
        <ele>1433</ele>
        <time>2020-07-30T13:11:43Z</time>
      </trkpt>
      <trkpt lat="46.02463" lon="6.57817">
        <ele>1435</ele>
        <time>2020-07-30T13:11:45Z</time>
      </trkpt>
      <trkpt lat="46.02462" lon="6.57826">
        <ele>1437</ele>
        <time>2020-07-30T13:11:48Z</time>
      </trkpt>
      <trkpt lat="46.02437" lon="6.57823">
        <ele>1448</ele>
        <time>2020-07-30T13:12:01Z</time>
      </trkpt>
      <trkpt lat="46.02434" lon="6.5783">
        <ele>1452</ele>
        <time>2020-07-30T13:12:04Z</time>
      </trkpt>
      <trkpt lat="46.0243" lon="6.57857">
        <ele>1457</ele>
        <time>2020-07-30T13:12:13Z</time>
      </trkpt>
      <trkpt lat="46.02427" lon="6.57858">
        <ele>1459</ele>
        <time>2020-07-30T13:12:15Z</time>
      </trkpt>
      <trkpt lat="46.02419" lon="6.57855">
        <ele>1463</ele>
        <time>2020-07-30T13:12:19Z</time>
      </trkpt>
      <trkpt lat="46.02419" lon="6.57863">
        <ele>1464</ele>
        <time>2020-07-30T13:12:22Z</time>
      </trkpt>
      <trkpt lat="46.02415" lon="6.57865">
        <ele>1467</ele>
        <time>2020-07-30T13:12:24Z</time>
      </trkpt>
      <trkpt lat="46.02415" lon="6.57871">
        <ele>1468</ele>
        <time>2020-07-30T13:12:26Z</time>
      </trkpt>
      <trkpt lat="46.02408" lon="6.57872">
        <ele>1471</ele>
        <time>2020-07-30T13:12:30Z</time>
      </trkpt>
      <trkpt lat="46.02404" lon="6.57884">
        <ele>1475</ele>
        <time>2020-07-30T13:12:34Z</time>
      </trkpt>
      <trkpt lat="46.02397" lon="6.57876">
        <ele>1477</ele>
        <time>2020-07-30T13:12:39Z</time>
      </trkpt>
      <trkpt lat="46.02385" lon="6.5787">
        <ele>1481</ele>
        <time>2020-07-30T13:12:45Z</time>
      </trkpt>
      <trkpt lat="46.02384" lon="6.57884">
        <ele>1485</ele>
        <time>2020-07-30T13:12:50Z</time>
      </trkpt>
      <trkpt lat="46.02389" lon="6.5792">
        <ele>1491</ele>
        <time>2020-07-30T13:13:03Z</time>
      </trkpt>
      <trkpt lat="46.02387" lon="6.57922">
        <ele>1492</ele>
        <time>2020-07-30T13:13:04Z</time>
      </trkpt>
      <trkpt lat="46.02374" lon="6.57909">
        <ele>1497</ele>
        <time>2020-07-30T13:13:12Z</time>
      </trkpt>
      <trkpt lat="46.02358" lon="6.57899">
        <ele>1503</ele>
        <time>2020-07-30T13:13:21Z</time>
      </trkpt>
      <trkpt lat="46.02356" lon="6.57904">
        <ele>1506</ele>
        <time>2020-07-30T13:13:23Z</time>
      </trkpt>
      <trkpt lat="46.02352" lon="6.57902">
        <ele>1507</ele>
        <time>2020-07-30T13:13:25Z</time>
      </trkpt>
      <trkpt lat="46.0235" lon="6.57904">
        <ele>1509</ele>
        <time>2020-07-30T13:13:26Z</time>
      </trkpt>
      <trkpt lat="46.0235" lon="6.57909">
        <ele>1511</ele>
        <time>2020-07-30T13:13:28Z</time>
      </trkpt>
      <trkpt lat="46.02342" lon="6.57913">
        <ele>1517</ele>
        <time>2020-07-30T13:13:32Z</time>
      </trkpt>
      <trkpt lat="46.02343" lon="6.57927">
        <ele>1519</ele>
        <time>2020-07-30T13:13:37Z</time>
      </trkpt>
      <trkpt lat="46.02339" lon="6.57926">
        <ele>1522</ele>
        <time>2020-07-30T13:13:39Z</time>
      </trkpt>
      <trkpt lat="46.0234" lon="6.57934">
        <ele>1523</ele>
        <time>2020-07-30T13:13:42Z</time>
      </trkpt>
      <trkpt lat="46.02335" lon="6.57939">
        <ele>1527</ele>
        <time>2020-07-30T13:13:45Z</time>
      </trkpt>
      <trkpt lat="46.02334" lon="6.5795">
        <ele>1530</ele>
        <time>2020-07-30T13:13:49Z</time>
      </trkpt>
      <trkpt lat="46.02328" lon="6.57949">
        <ele>1533</ele>
        <time>2020-07-30T13:13:52Z</time>
      </trkpt>
      <trkpt lat="46.02324" lon="6.5797">
        <ele>1540</ele>
        <time>2020-07-30T13:13:59Z</time>
      </trkpt>
      <trkpt lat="46.02315" lon="6.57966">
        <ele>1544</ele>
        <time>2020-07-30T13:14:04Z</time>
      </trkpt>
      <trkpt lat="46.02313" lon="6.57975">
        <ele>1548</ele>
        <time>2020-07-30T13:14:07Z</time>
      </trkpt>
      <trkpt lat="46.02304" lon="6.57976">
        <ele>1553</ele>
        <time>2020-07-30T13:14:12Z</time>
      </trkpt>
      <trkpt lat="46.023" lon="6.57974">
        <ele>1555</ele>
        <time>2020-07-30T13:14:14Z</time>
      </trkpt>
      <trkpt lat="46.02291" lon="6.57962">
        <ele>1557</ele>
        <time>2020-07-30T13:14:20Z</time>
      </trkpt>
      <trkpt lat="46.02277" lon="6.57949">
        <ele>1562</ele>
        <time>2020-07-30T13:14:28Z</time>
      </trkpt>
      <trkpt lat="46.02258" lon="6.57934">
        <ele>1569</ele>
        <time>2020-07-30T13:14:39Z</time>
      </trkpt>
      <trkpt lat="46.02249" lon="6.57933">
        <ele>1574</ele>
        <time>2020-07-30T13:14:44Z</time>
      </trkpt>
      <trkpt lat="46.02238" lon="6.57923">
        <ele>1577</ele>
        <time>2020-07-30T13:14:50Z</time>
      </trkpt>
      <trkpt lat="46.02252" lon="6.57953">
        <ele>1577</ele>
        <time>2020-07-30T13:15:03Z</time>
      </trkpt>
      <trkpt lat="46.02254" lon="6.5796">
        <ele>1578</ele>
        <time>2020-07-30T13:15:05Z</time>
      </trkpt>
      <trkpt lat="46.02252" lon="6.57967">
        <ele>1581</ele>
        <time>2020-07-30T13:15:08Z</time>
      </trkpt>
      <trkpt lat="46.02244" lon="6.57959">
        <ele>1583</ele>
        <time>2020-07-30T13:15:13Z</time>
      </trkpt>
      <trkpt lat="46.0223" lon="6.57955">
        <ele>1590</ele>
        <time>2020-07-30T13:15:20Z</time>
      </trkpt>
      <trkpt lat="46.02223" lon="6.57947">
        <ele>1592</ele>
        <time>2020-07-30T13:15:24Z</time>
      </trkpt>
      <trkpt lat="46.02213" lon="6.57943">
        <ele>1596</ele>
        <time>2020-07-30T13:15:30Z</time>
      </trkpt>
      <trkpt lat="46.0221" lon="6.57947">
        <ele>1599</ele>
        <time>2020-07-30T13:15:32Z</time>
      </trkpt>
      <trkpt lat="46.02211" lon="6.57959">
        <ele>1602</ele>
        <time>2020-07-30T13:15:36Z</time>
      </trkpt>
      <trkpt lat="46.02207" lon="6.57964">
        <ele>1605</ele>
        <time>2020-07-30T13:15:38Z</time>
      </trkpt>
      <trkpt lat="46.02192" lon="6.57953">
        <ele>1611</ele>
        <time>2020-07-30T13:15:47Z</time>
      </trkpt>
      <trkpt lat="46.0219" lon="6.57955">
        <ele>1612</ele>
        <time>2020-07-30T13:15:48Z</time>
      </trkpt>
      <trkpt lat="46.02192" lon="6.57963">
        <ele>1613</ele>
        <time>2020-07-30T13:15:51Z</time>
      </trkpt>
      <trkpt lat="46.02189" lon="6.57966">
        <ele>1616</ele>
        <time>2020-07-30T13:15:53Z</time>
      </trkpt>
      <trkpt lat="46.02185" lon="6.57959">
        <ele>1616</ele>
        <time>2020-07-30T13:15:56Z</time>
      </trkpt>
      <trkpt lat="46.02178" lon="6.57955">
        <ele>1619</ele>
        <time>2020-07-30T13:16:00Z</time>
      </trkpt>
      <trkpt lat="46.02174" lon="6.57949">
        <ele>1619</ele>
        <time>2020-07-30T13:16:03Z</time>
      </trkpt>
      <trkpt lat="46.02143" lon="6.57928">
        <ele>1635</ele>
        <time>2020-07-30T13:16:20Z</time>
      </trkpt>
      <trkpt lat="46.02137" lon="6.5792">
        <ele>1638</ele>
        <time>2020-07-30T13:16:24Z</time>
      </trkpt>
      <trkpt lat="46.02134" lon="6.57908">
        <ele>1636</ele>
        <time>2020-07-30T13:16:28Z</time>
      </trkpt>
      <trkpt lat="46.02131" lon="6.57904">
        <ele>1637</ele>
        <time>2020-07-30T13:16:30Z</time>
      </trkpt>
      <trkpt lat="46.02127" lon="6.57904">
        <ele>1640</ele>
        <time>2020-07-30T13:16:32Z</time>
      </trkpt>
      <trkpt lat="46.02122" lon="6.57911">
        <ele>1646</ele>
        <time>2020-07-30T13:16:36Z</time>
      </trkpt>
      <trkpt lat="46.02124" lon="6.57937">
        <ele>1653</ele>
        <time>2020-07-30T13:16:45Z</time>
      </trkpt>
      <trkpt lat="46.02122" lon="6.57939">
        <ele>1655</ele>
        <time>2020-07-30T13:16:46Z</time>
      </trkpt>
      <trkpt lat="46.02117" lon="6.57937">
        <ele>1658</ele>
        <time>2020-07-30T13:16:49Z</time>
      </trkpt>
      <trkpt lat="46.02114" lon="6.57932">
        <ele>1659</ele>
        <time>2020-07-30T13:16:51Z</time>
      </trkpt>
      <trkpt lat="46.02112" lon="6.57933">
        <ele>1661</ele>
        <time>2020-07-30T13:16:52Z</time>
      </trkpt>
      <trkpt lat="46.02108" lon="6.5794">
        <ele>1666</ele>
        <time>2020-07-30T13:16:55Z</time>
      </trkpt>
      <trkpt lat="46.02109" lon="6.57944">
        <ele>1666</ele>
        <time>2020-07-30T13:16:57Z</time>
      </trkpt>
      <trkpt lat="46.02106" lon="6.57947">
        <ele>1669</ele>
        <time>2020-07-30T13:16:59Z</time>
      </trkpt>
      <trkpt lat="46.02107" lon="6.57955">
        <ele>1671</ele>
        <time>2020-07-30T13:17:01Z</time>
      </trkpt>
      <trkpt lat="46.02103" lon="6.57963">
        <ele>1676</ele>
        <time>2020-07-30T13:17:05Z</time>
      </trkpt>
      <trkpt lat="46.021" lon="6.5796">
        <ele>1678</ele>
        <time>2020-07-30T13:17:07Z</time>
      </trkpt>
      <trkpt lat="46.02095" lon="6.57969">
        <ele>1684</ele>
        <time>2020-07-30T13:17:11Z</time>
      </trkpt>
      <trkpt lat="46.02092" lon="6.57965">
        <ele>1685</ele>
        <time>2020-07-30T13:17:13Z</time>
      </trkpt>
      <trkpt lat="46.02094" lon="6.57967">
        <ele>1684</ele>
        <time>2020-07-30T13:17:14Z</time>
      </trkpt>
      <trkpt lat="46.02089" lon="6.57969">
        <ele>1689</ele>
        <time>2020-07-30T13:17:17Z</time>
      </trkpt>
      <trkpt lat="46.02082" lon="6.57965">
        <ele>1692</ele>
        <time>2020-07-30T13:17:20Z</time>
      </trkpt>
      <trkpt lat="46.02074" lon="6.57948">
        <ele>1690</ele>
        <time>2020-07-30T13:17:27Z</time>
      </trkpt>
      <trkpt lat="46.02072" lon="6.5795">
        <ele>1692</ele>
        <time>2020-07-30T13:17:29Z</time>
      </trkpt>
      <trkpt lat="46.02072" lon="6.57957">
        <ele>1694</ele>
        <time>2020-07-30T13:17:31Z</time>
      </trkpt>
      <trkpt lat="46.02063" lon="6.57963">
        <ele>1699</ele>
        <time>2020-07-30T13:17:36Z</time>
      </trkpt>
      <trkpt lat="46.02064" lon="6.57969">
        <ele>1700</ele>
        <time>2020-07-30T13:17:38Z</time>
      </trkpt>
      <trkpt lat="46.02059" lon="6.57968">
        <ele>1702</ele>
        <time>2020-07-30T13:17:41Z</time>
      </trkpt>
      <trkpt lat="46.0205" lon="6.57974">
        <ele>1707</ele>
        <time>2020-07-30T13:17:46Z</time>
      </trkpt>
      <trkpt lat="46.02046" lon="6.57974">
        <ele>1708</ele>
        <time>2020-07-30T13:17:48Z</time>
      </trkpt>
      <trkpt lat="46.02042" lon="6.5797">
        <ele>1709</ele>
        <time>2020-07-30T13:17:50Z</time>
      </trkpt>
      <trkpt lat="46.02026" lon="6.57984">
        <ele>1719</ele>
        <time>2020-07-30T13:18:00Z</time>
      </trkpt>
      <trkpt lat="46.02024" lon="6.57991">
        <ele>1721</ele>
        <time>2020-07-30T13:18:02Z</time>
      </trkpt>
      <trkpt lat="46.02027" lon="6.57999">
        <ele>1723</ele>
        <time>2020-07-30T13:18:05Z</time>
      </trkpt>
      <trkpt lat="46.02019" lon="6.5802">
        <ele>1730</ele>
        <time>2020-07-30T13:18:14Z</time>
      </trkpt>
      <trkpt lat="46.02007" lon="6.58023">
        <ele>1735</ele>
        <time>2020-07-30T13:18:20Z</time>
      </trkpt>
      <trkpt lat="46.02" lon="6.5802">
        <ele>1738</ele>
        <time>2020-07-30T13:18:23Z</time>
      </trkpt>
      <trkpt lat="46.01997" lon="6.58021">
        <ele>1738</ele>
        <time>2020-07-30T13:18:25Z</time>
      </trkpt>
      <trkpt lat="46.01963" lon="6.58042">
        <ele>1750</ele>
        <time>2020-07-30T13:18:43Z</time>
      </trkpt>
      <trkpt lat="46.01953" lon="6.58044">
        <ele>1752</ele>
        <time>2020-07-30T13:18:49Z</time>
      </trkpt>
      <trkpt lat="46.0195" lon="6.5805">
        <ele>1755</ele>
        <time>2020-07-30T13:18:51Z</time>
      </trkpt>
      <trkpt lat="46.01932" lon="6.58056">
        <ele>1760</ele>
        <time>2020-07-30T13:19:00Z</time>
      </trkpt>
      <trkpt lat="46.01904" lon="6.58077">
        <ele>1773</ele>
        <time>2020-07-30T13:19:16Z</time>
      </trkpt>
      <trkpt lat="46.01897" lon="6.58087">
        <ele>1776</ele>
        <time>2020-07-30T13:19:21Z</time>
      </trkpt>
      <trkpt lat="46.01893" lon="6.58088">
        <ele>1778</ele>
        <time>2020-07-30T13:19:23Z</time>
      </trkpt>
      <trkpt lat="46.01892" lon="6.58092">
        <ele>1778</ele>
        <time>2020-07-30T13:19:25Z</time>
      </trkpt>
      <trkpt lat="46.01894" lon="6.58095">
        <ele>1778</ele>
        <time>2020-07-30T13:19:26Z</time>
      </trkpt>
      <trkpt lat="46.01878" lon="6.58103">
        <ele>1783</ele>
        <time>2020-07-30T13:19:34Z</time>
      </trkpt>
      <trkpt lat="46.01862" lon="6.58101">
        <ele>1787</ele>
        <time>2020-07-30T13:19:43Z</time>
      </trkpt>
      <trkpt lat="46.0184" lon="6.58068">
        <ele>1788</ele>
        <time>2020-07-30T13:19:58Z</time>
      </trkpt>
      <trkpt lat="46.01824" lon="6.58058">
        <ele>1790</ele>
        <time>2020-07-30T13:20:07Z</time>
      </trkpt>
      <trkpt lat="46.01779" lon="6.58049">
        <ele>1802</ele>
        <time>2020-07-30T13:20:30Z</time>
      </trkpt>
      <trkpt lat="46.01759" lon="6.58036">
        <ele>1804</ele>
        <time>2020-07-30T13:20:41Z</time>
      </trkpt>
      <trkpt lat="46.01754" lon="6.58037">
        <ele>1805</ele>
        <time>2020-07-30T13:20:43Z</time>
      </trkpt>
      <trkpt lat="46.01752" lon="6.58039">
        <ele>1807</ele>
        <time>2020-07-30T13:20:45Z</time>
      </trkpt>
      <trkpt lat="46.0177" lon="6.58062">
        <ele>1808</ele>
        <time>2020-07-30T13:20:57Z</time>
      </trkpt>
      <trkpt lat="46.01782" lon="6.58073">
        <ele>1808</ele>
        <time>2020-07-30T13:21:04Z</time>
      </trkpt>
      <trkpt lat="46.01787" lon="6.58083">
        <ele>1809</ele>
        <time>2020-07-30T13:21:08Z</time>
      </trkpt>
      <trkpt lat="46.01805" lon="6.58104">
        <ele>1806</ele>
        <time>2020-07-30T13:21:20Z</time>
      </trkpt>
      <trkpt lat="46.01824" lon="6.58156">
        <ele>1807</ele>
        <time>2020-07-30T13:21:40Z</time>
      </trkpt>
      <trkpt lat="46.01823" lon="6.58161">
        <ele>1808</ele>
        <time>2020-07-30T13:21:42Z</time>
      </trkpt>
      <trkpt lat="46.0182" lon="6.58161">
        <ele>1810</ele>
        <time>2020-07-30T13:21:43Z</time>
      </trkpt>
      <trkpt lat="46.01802" lon="6.58142">
        <ele>1814</ele>
        <time>2020-07-30T13:21:55Z</time>
      </trkpt>
      <trkpt lat="46.01784" lon="6.58129">
        <ele>1819</ele>
        <time>2020-07-30T13:22:05Z</time>
      </trkpt>
      <trkpt lat="46.0178" lon="6.58123">
        <ele>1819</ele>
        <time>2020-07-30T13:22:08Z</time>
      </trkpt>
      <trkpt lat="46.01776" lon="6.58123">
        <ele>1821</ele>
        <time>2020-07-30T13:22:10Z</time>
      </trkpt>
      <trkpt lat="46.01763" lon="6.58116">
        <ele>1824</ele>
        <time>2020-07-30T13:22:16Z</time>
      </trkpt>
      <trkpt lat="46.01719" lon="6.58104">
        <ele>1836</ele>
        <time>2020-07-30T13:22:39Z</time>
      </trkpt>
      <trkpt lat="46.01662" lon="6.58098">
        <ele>1851</ele>
        <time>2020-07-30T13:23:07Z</time>
      </trkpt>
      <trkpt lat="46.01654" lon="6.581">
        <ele>1854</ele>
        <time>2020-07-30T13:23:12Z</time>
      </trkpt>
      <trkpt lat="46.01582" lon="6.58086">
        <ele>1867</ele>
        <time>2020-07-30T13:23:48Z</time>
      </trkpt>
      <trkpt lat="46.01566" lon="6.58078">
        <ele>1867</ele>
        <time>2020-07-30T13:23:56Z</time>
      </trkpt>
      <trkpt lat="46.01541" lon="6.58058">
        <ele>1865</ele>
        <time>2020-07-30T13:24:11Z</time>
      </trkpt>
      <trkpt lat="46.01503" lon="6.58041">
        <ele>1868</ele>
        <time>2020-07-30T13:24:31Z</time>
      </trkpt>
      <trkpt lat="46.0148" lon="6.58035">
        <ele>1870</ele>
        <time>2020-07-30T13:24:42Z</time>
      </trkpt>
      <trkpt lat="46.01453" lon="6.58032">
        <ele>1874</ele>
        <time>2020-07-30T13:24:56Z</time>
      </trkpt>
      <trkpt lat="46.01413" lon="6.58037">
        <ele>1882</ele>
        <time>2020-07-30T13:25:16Z</time>
      </trkpt>
      <trkpt lat="46.01397" lon="6.58041">
        <ele>1886</ele>
        <time>2020-07-30T13:25:24Z</time>
      </trkpt>
      <trkpt lat="46.01378" lon="6.58051">
        <ele>1891</ele>
        <time>2020-07-30T13:25:34Z</time>
      </trkpt>
      <trkpt lat="46.0137" lon="6.58049">
        <ele>1892</ele>
        <time>2020-07-30T13:25:38Z</time>
      </trkpt>
      <trkpt lat="46.01358" lon="6.58041">
        <ele>1892</ele>
        <time>2020-07-30T13:25:45Z</time>
      </trkpt>
      <trkpt lat="46.01329" lon="6.58044">
        <ele>1898</ele>
        <time>2020-07-30T13:25:59Z</time>
      </trkpt>
      <trkpt lat="46.0131" lon="6.58037">
        <ele>1901</ele>
        <time>2020-07-30T13:26:09Z</time>
      </trkpt>
      <trkpt lat="46.01299" lon="6.58037">
        <ele>1903</ele>
        <time>2020-07-30T13:26:15Z</time>
      </trkpt>
      <trkpt lat="46.01292" lon="6.58039">
        <ele>1904</ele>
        <time>2020-07-30T13:26:18Z</time>
      </trkpt>
      <trkpt lat="46.01271" lon="6.58056">
        <ele>1910</ele>
        <time>2020-07-30T13:26:30Z</time>
      </trkpt>
      <trkpt lat="46.01259" lon="6.58061">
        <ele>1912</ele>
        <time>2020-07-30T13:26:37Z</time>
      </trkpt>
      <trkpt lat="46.0125" lon="6.5806">
        <ele>1914</ele>
        <time>2020-07-30T13:26:41Z</time>
      </trkpt>
      <trkpt lat="46.01241" lon="6.58051">
        <ele>1915</ele>
        <time>2020-07-30T13:26:47Z</time>
      </trkpt>
      <trkpt lat="46.01217" lon="6.58045">
        <ele>1921</ele>
        <time>2020-07-30T13:26:59Z</time>
      </trkpt>
      <trkpt lat="46.01204" lon="6.58033">
        <ele>1923</ele>
        <time>2020-07-30T13:27:07Z</time>
      </trkpt>
      <trkpt lat="46.01212" lon="6.57992">
        <ele>1920</ele>
        <time>2020-07-30T13:27:21Z</time>
      </trkpt>
      <trkpt lat="46.01214" lon="6.57974">
        <ele>1920</ele>
        <time>2020-07-30T13:27:28Z</time>
      </trkpt>
      <trkpt lat="46.01212" lon="6.57962">
        <ele>1920</ele>
        <time>2020-07-30T13:27:32Z</time>
      </trkpt>
      <trkpt lat="46.0119" lon="6.57953">
        <ele>1927</ele>
        <time>2020-07-30T13:27:43Z</time>
      </trkpt>
      <trkpt lat="46.01182" lon="6.57959">
        <ele>1929</ele>
        <time>2020-07-30T13:27:48Z</time>
      </trkpt>
      <trkpt lat="46.01176" lon="6.57972">
        <ele>1930</ele>
        <time>2020-07-30T13:27:53Z</time>
      </trkpt>
      <trkpt lat="46.01159" lon="6.57995">
        <ele>1935</ele>
        <time>2020-07-30T13:28:05Z</time>
      </trkpt>
      <trkpt lat="46.01135" lon="6.58035">
        <ele>1942</ele>
        <time>2020-07-30T13:28:23Z</time>
      </trkpt>
      <trkpt lat="46.01124" lon="6.58082">
        <ele>1945</ele>
        <time>2020-07-30T13:28:41Z</time>
      </trkpt>
      <trkpt lat="46.01115" lon="6.58102">
        <ele>1946</ele>
        <time>2020-07-30T13:28:49Z</time>
      </trkpt>
      <trkpt lat="46.01107" lon="6.5811">
        <ele>1948</ele>
        <time>2020-07-30T13:28:54Z</time>
      </trkpt>
      <trkpt lat="46.01103" lon="6.58104">
        <ele>1949</ele>
        <time>2020-07-30T13:28:57Z</time>
      </trkpt>
      <trkpt lat="46.01096" lon="6.58106">
        <ele>1951</ele>
        <time>2020-07-30T13:29:00Z</time>
      </trkpt>
      <trkpt lat="46.01088" lon="6.5812">
        <ele>1953</ele>
        <time>2020-07-30T13:29:07Z</time>
      </trkpt>
      <trkpt lat="46.01082" lon="6.58117">
        <ele>1955</ele>
        <time>2020-07-30T13:29:10Z</time>
      </trkpt>
      <trkpt lat="46.0107" lon="6.58148">
        <ele>1958</ele>
        <time>2020-07-30T13:29:22Z</time>
      </trkpt>
      <trkpt lat="46.0107" lon="6.58157">
        <ele>1957</ele>
        <time>2020-07-30T13:29:25Z</time>
      </trkpt>
      <trkpt lat="46.01059" lon="6.58179">
        <ele>1958</ele>
        <time>2020-07-30T13:29:35Z</time>
      </trkpt>
      <trkpt lat="46.0105" lon="6.58189">
        <ele>1960</ele>
        <time>2020-07-30T13:29:40Z</time>
      </trkpt>
      <trkpt lat="46.01042" lon="6.58194">
        <ele>1963</ele>
        <time>2020-07-30T13:29:45Z</time>
      </trkpt>
      <trkpt lat="46.01034" lon="6.58207">
        <ele>1964</ele>
        <time>2020-07-30T13:29:51Z</time>
      </trkpt>
      <trkpt lat="46.01026" lon="6.58212">
        <ele>1968</ele>
        <time>2020-07-30T13:29:55Z</time>
      </trkpt>
      <trkpt lat="46.01002" lon="6.58247">
        <ele>1977</ele>
        <time>2020-07-30T13:30:12Z</time>
      </trkpt>
      <trkpt lat="46.00993" lon="6.58254">
        <ele>1978</ele>
        <time>2020-07-30T13:30:17Z</time>
      </trkpt>
      <trkpt lat="46.00971" lon="6.58264">
        <ele>1980</ele>
        <time>2020-07-30T13:30:29Z</time>
      </trkpt>
      <trkpt lat="46.00927" lon="6.58273">
        <ele>1985</ele>
        <time>2020-07-30T13:30:51Z</time>
      </trkpt>
      <trkpt lat="46.00892" lon="6.58263">
        <ele>1986</ele>
        <time>2020-07-30T13:31:09Z</time>
      </trkpt>
      <trkpt lat="46.00874" lon="6.58254">
        <ele>1985</ele>
        <time>2020-07-30T13:31:18Z</time>
      </trkpt>
      <trkpt lat="46.00849" lon="6.58234">
        <ele>1982</ele>
        <time>2020-07-30T13:31:33Z</time>
      </trkpt>
      <trkpt lat="46.0082" lon="6.58195">
        <ele>1978</ele>
        <time>2020-07-30T13:31:53Z</time>
      </trkpt>
      <trkpt lat="46.00805" lon="6.5816">
        <ele>1974</ele>
        <time>2020-07-30T13:32:07Z</time>
      </trkpt>
      <trkpt lat="46.00799" lon="6.58131">
        <ele>1968</ele>
        <time>2020-07-30T13:32:17Z</time>
      </trkpt>
      <trkpt lat="46.00813" lon="6.58079">
        <ele>1969</ele>
        <time>2020-07-30T13:32:37Z</time>
      </trkpt>
      <trkpt lat="46.00838" lon="6.58032">
        <ele>1974</ele>
        <time>2020-07-30T13:32:57Z</time>
      </trkpt>
      <trkpt lat="46.00846" lon="6.58022">
        <ele>1975</ele>
        <time>2020-07-30T13:33:03Z</time>
      </trkpt>
      <trkpt lat="46.00878" lon="6.57994">
        <ele>1983</ele>
        <time>2020-07-30T13:33:21Z</time>
      </trkpt>
      <trkpt lat="46.00892" lon="6.57972">
        <ele>1986</ele>
        <time>2020-07-30T13:33:32Z</time>
      </trkpt>
      <trkpt lat="46.00925" lon="6.57868">
        <ele>1993</ele>
        <time>2020-07-30T13:34:12Z</time>
      </trkpt>
      <trkpt lat="46.00929" lon="6.57849">
        <ele>1993</ele>
        <time>2020-07-30T13:34:18Z</time>
      </trkpt>
      <trkpt lat="46.0093" lon="6.57809">
        <ele>1992</ele>
        <time>2020-07-30T13:34:32Z</time>
      </trkpt>
      <trkpt lat="46.00927" lon="6.57793">
        <ele>1991</ele>
        <time>2020-07-30T13:34:38Z</time>
      </trkpt>
      <trkpt lat="46.00917" lon="6.57774">
        <ele>1990</ele>
        <time>2020-07-30T13:34:46Z</time>
      </trkpt>
      <trkpt lat="46.00901" lon="6.57754">
        <ele>1985</ele>
        <time>2020-07-30T13:34:57Z</time>
      </trkpt>
      <trkpt lat="46.00898" lon="6.57742">
        <ele>1983</ele>
        <time>2020-07-30T13:35:01Z</time>
      </trkpt>
      <trkpt lat="46.0091" lon="6.57716">
        <ele>1985</ele>
        <time>2020-07-30T13:35:12Z</time>
      </trkpt>
      <trkpt lat="46.00907" lon="6.57701">
        <ele>1983</ele>
        <time>2020-07-30T13:35:18Z</time>
      </trkpt>
      <trkpt lat="46.00896" lon="6.5768">
        <ele>1979</ele>
        <time>2020-07-30T13:35:27Z</time>
      </trkpt>
      <trkpt lat="46.00872" lon="6.57645">
        <ele>1975</ele>
        <time>2020-07-30T13:35:44Z</time>
      </trkpt>
      <trkpt lat="46.00863" lon="6.57626">
        <ele>1975</ele>
        <time>2020-07-30T13:35:52Z</time>
      </trkpt>
      <trkpt lat="46.00857" lon="6.5762">
        <ele>1975</ele>
        <time>2020-07-30T13:35:56Z</time>
      </trkpt>
      <trkpt lat="46.00854" lon="6.57598">
        <ele>1976</ele>
        <time>2020-07-30T13:36:03Z</time>
      </trkpt>
      <trkpt lat="46.0085" lon="6.57593">
        <ele>1976</ele>
        <time>2020-07-30T13:36:06Z</time>
      </trkpt>
      <trkpt lat="46.00822" lon="6.57595">
        <ele>1977</ele>
        <time>2020-07-30T13:36:20Z</time>
      </trkpt>
      <trkpt lat="46.00799" lon="6.57586">
        <ele>1973</ele>
        <time>2020-07-30T13:36:32Z</time>
      </trkpt>
      <trkpt lat="46.00797" lon="6.57583">
        <ele>1974</ele>
        <time>2020-07-30T13:36:33Z</time>
      </trkpt>
      <trkpt lat="46.00798" lon="6.57577">
        <ele>1975</ele>
        <time>2020-07-30T13:36:36Z</time>
      </trkpt>
      <trkpt lat="46.00808" lon="6.57563">
        <ele>1978</ele>
        <time>2020-07-30T13:36:43Z</time>
      </trkpt>
      <trkpt lat="46.00805" lon="6.57543">
        <ele>1981</ele>
        <time>2020-07-30T13:36:50Z</time>
      </trkpt>
      <trkpt lat="46.00801" lon="6.57538">
        <ele>1981</ele>
        <time>2020-07-30T13:36:52Z</time>
      </trkpt>
      <trkpt lat="46.00779" lon="6.57534">
        <ele>1980</ele>
        <time>2020-07-30T13:37:03Z</time>
      </trkpt>
      <trkpt lat="46.00766" lon="6.57516">
        <ele>1984</ele>
        <time>2020-07-30T13:37:12Z</time>
      </trkpt>
      <trkpt lat="46.00758" lon="6.57496">
        <ele>1989</ele>
        <time>2020-07-30T13:37:20Z</time>
      </trkpt>
      <trkpt lat="46.00734" lon="6.57478">
        <ele>1988</ele>
        <time>2020-07-30T13:37:34Z</time>
      </trkpt>
      <trkpt lat="46.00714" lon="6.5745">
        <ele>1990</ele>
        <time>2020-07-30T13:37:48Z</time>
      </trkpt>
      <trkpt lat="46.00713" lon="6.57435">
        <ele>1994</ele>
        <time>2020-07-30T13:37:53Z</time>
      </trkpt>
      <trkpt lat="46.0069" lon="6.57409">
        <ele>1995</ele>
        <time>2020-07-30T13:38:08Z</time>
      </trkpt>
      <trkpt lat="46.00683" lon="6.57395">
        <ele>1995</ele>
        <time>2020-07-30T13:38:14Z</time>
      </trkpt>
      <trkpt lat="46.00677" lon="6.5736">
        <ele>1999</ele>
        <time>2020-07-30T13:38:26Z</time>
      </trkpt>
      <trkpt lat="46.00669" lon="6.57354">
        <ele>1999</ele>
        <time>2020-07-30T13:38:31Z</time>
      </trkpt>
      <trkpt lat="46.00658" lon="6.57321">
        <ele>1998</ele>
        <time>2020-07-30T13:38:44Z</time>
      </trkpt>
      <trkpt lat="46.00645" lon="6.57296">
        <ele>1994</ele>
        <time>2020-07-30T13:38:54Z</time>
      </trkpt>
      <trkpt lat="46.00631" lon="6.57261">
        <ele>1991</ele>
        <time>2020-07-30T13:39:09Z</time>
      </trkpt>
      <trkpt lat="46.00632" lon="6.57259">
        <ele>1991</ele>
        <time>2020-07-30T13:39:09Z</time>
      </trkpt>
      <trkpt lat="46.00626" lon="6.57253">
        <ele>1990</ele>
        <time>2020-07-30T13:39:13Z</time>
      </trkpt>
      <trkpt lat="46.00617" lon="6.57233">
        <ele>1986</ele>
        <time>2020-07-30T13:39:21Z</time>
      </trkpt>
      <trkpt lat="46.0061" lon="6.57231">
        <ele>1985</ele>
        <time>2020-07-30T13:39:25Z</time>
      </trkpt>
      <trkpt lat="46.00602" lon="6.57222">
        <ele>1983</ele>
        <time>2020-07-30T13:39:30Z</time>
      </trkpt>
      <trkpt lat="46.00595" lon="6.57221">
        <ele>1982</ele>
        <time>2020-07-30T13:39:33Z</time>
      </trkpt>
      <trkpt lat="46.00585" lon="6.57211">
        <ele>1981</ele>
        <time>2020-07-30T13:39:40Z</time>
      </trkpt>
      <trkpt lat="46.00572" lon="6.57204">
        <ele>1979</ele>
        <time>2020-07-30T13:39:47Z</time>
      </trkpt>
      <trkpt lat="46.00544" lon="6.57177">
        <ele>1977</ele>
        <time>2020-07-30T13:40:03Z</time>
      </trkpt>
      <trkpt lat="46.00526" lon="6.57174">
        <ele>1976</ele>
        <time>2020-07-30T13:40:12Z</time>
      </trkpt>
      <trkpt lat="46.00521" lon="6.57161">
        <ele>1975</ele>
        <time>2020-07-30T13:40:18Z</time>
      </trkpt>
      <trkpt lat="46.00496" lon="6.57134">
        <ele>1975</ele>
        <time>2020-07-30T13:40:33Z</time>
      </trkpt>
      <trkpt lat="46.00466" lon="6.57072">
        <ele>1979</ele>
        <time>2020-07-30T13:41:00Z</time>
      </trkpt>
      <trkpt lat="46.00454" lon="6.57061">
        <ele>1980</ele>
        <time>2020-07-30T13:41:07Z</time>
      </trkpt>
      <trkpt lat="46.00436" lon="6.5702">
        <ele>1980</ele>
        <time>2020-07-30T13:41:23Z</time>
      </trkpt>
      <trkpt lat="46.00428" lon="6.56997">
        <ele>1980</ele>
        <time>2020-07-30T13:41:32Z</time>
      </trkpt>
      <trkpt lat="46.00423" lon="6.56957">
        <ele>1984</ele>
        <time>2020-07-30T13:41:47Z</time>
      </trkpt>
      <trkpt lat="46.00425" lon="6.56917">
        <ele>1986</ele>
        <time>2020-07-30T13:42:00Z</time>
      </trkpt>
      <trkpt lat="46.00429" lon="6.56908">
        <ele>1987</ele>
        <time>2020-07-30T13:42:04Z</time>
      </trkpt>
      <trkpt lat="46.00454" lon="6.56873">
        <ele>1984</ele>
        <time>2020-07-30T13:42:22Z</time>
      </trkpt>
      <trkpt lat="46.00462" lon="6.56844">
        <ele>1985</ele>
        <time>2020-07-30T13:42:33Z</time>
      </trkpt>
      <trkpt lat="46.00491" lon="6.56794">
        <ele>1981</ele>
        <time>2020-07-30T13:42:55Z</time>
      </trkpt>
      <trkpt lat="46.0051" lon="6.56737">
        <ele>1978</ele>
        <time>2020-07-30T13:43:17Z</time>
      </trkpt>
      <trkpt lat="46.00504" lon="6.5671">
        <ele>1977</ele>
        <time>2020-07-30T13:43:27Z</time>
      </trkpt>
      <trkpt lat="46.00493" lon="6.56685">
        <ele>1977</ele>
        <time>2020-07-30T13:43:37Z</time>
      </trkpt>
      <trkpt lat="46.00474" lon="6.56659">
        <ele>1978</ele>
        <time>2020-07-30T13:43:50Z</time>
      </trkpt>
      <trkpt lat="46.00466" lon="6.56652">
        <ele>1979</ele>
        <time>2020-07-30T13:43:55Z</time>
      </trkpt>
      <trkpt lat="46.00452" lon="6.56626">
        <ele>1976</ele>
        <time>2020-07-30T13:44:07Z</time>
      </trkpt>
      <trkpt lat="46.00435" lon="6.56602">
        <ele>1973</ele>
        <time>2020-07-30T13:44:18Z</time>
      </trkpt>
      <trkpt lat="46.00383" lon="6.56551">
        <ele>1968</ele>
        <time>2020-07-30T13:44:50Z</time>
      </trkpt>
      <trkpt lat="46.00364" lon="6.56524">
        <ele>1962</ele>
        <time>2020-07-30T13:45:03Z</time>
      </trkpt>
      <trkpt lat="46.00349" lon="6.56509">
        <ele>1959</ele>
        <time>2020-07-30T13:45:12Z</time>
      </trkpt>
      <trkpt lat="46.00325" lon="6.56494">
        <ele>1955</ele>
        <time>2020-07-30T13:45:25Z</time>
      </trkpt>
      <trkpt lat="46.00309" lon="6.56475">
        <ele>1949</ele>
        <time>2020-07-30T13:45:36Z</time>
      </trkpt>
      <trkpt lat="46.00277" lon="6.56449">
        <ele>1942</ele>
        <time>2020-07-30T13:45:54Z</time>
      </trkpt>
      <trkpt lat="46.00274" lon="6.56449">
        <ele>1942</ele>
        <time>2020-07-30T13:45:56Z</time>
      </trkpt>
      <trkpt lat="46.00232" lon="6.5648">
        <ele>1953</ele>
        <time>2020-07-30T13:46:19Z</time>
      </trkpt>
      <trkpt lat="46.00221" lon="6.56491">
        <ele>1957</ele>
        <time>2020-07-30T13:46:26Z</time>
      </trkpt>
      <trkpt lat="46.00212" lon="6.56495">
        <ele>1959</ele>
        <time>2020-07-30T13:46:31Z</time>
      </trkpt>
      <trkpt lat="46.00209" lon="6.56501">
        <ele>1961</ele>
        <time>2020-07-30T13:46:33Z</time>
      </trkpt>
      <trkpt lat="46.00185" lon="6.56513">
        <ele>1966</ele>
        <time>2020-07-30T13:46:46Z</time>
      </trkpt>
      <trkpt lat="46.00161" lon="6.56522">
        <ele>1971</ele>
        <time>2020-07-30T13:46:58Z</time>
      </trkpt>
      <trkpt lat="46.00133" lon="6.56528">
        <ele>1976</ele>
        <time>2020-07-30T13:47:13Z</time>
      </trkpt>
      <trkpt lat="46.0012" lon="6.56535">
        <ele>1980</ele>
        <time>2020-07-30T13:47:20Z</time>
      </trkpt>
      <trkpt lat="46.00107" lon="6.56532">
        <ele>1980</ele>
        <time>2020-07-30T13:47:26Z</time>
      </trkpt>
      <trkpt lat="46.00081" lon="6.56534">
        <ele>1983</ele>
        <time>2020-07-30T13:47:39Z</time>
      </trkpt>
      <trkpt lat="46.00072" lon="6.56529">
        <ele>1981</ele>
        <time>2020-07-30T13:47:44Z</time>
      </trkpt>
      <trkpt lat="46.00064" lon="6.5653">
        <ele>1981</ele>
        <time>2020-07-30T13:47:48Z</time>
      </trkpt>
      <trkpt lat="46.00054" lon="6.5654">
        <ele>1983</ele>
        <time>2020-07-30T13:47:54Z</time>
      </trkpt>
      <trkpt lat="46.00027" lon="6.56556">
        <ele>1986</ele>
        <time>2020-07-30T13:48:09Z</time>
      </trkpt>
      <trkpt lat="46.00013" lon="6.56576">
        <ele>1990</ele>
        <time>2020-07-30T13:48:19Z</time>
      </trkpt>
      <trkpt lat="46" lon="6.56586">
        <ele>1991</ele>
        <time>2020-07-30T13:48:26Z</time>
      </trkpt>
      <trkpt lat="45.99989" lon="6.56591">
        <ele>1991</ele>
        <time>2020-07-30T13:48:32Z</time>
      </trkpt>
      <trkpt lat="45.99987" lon="6.56597">
        <ele>1992</ele>
        <time>2020-07-30T13:48:34Z</time>
      </trkpt>
      <trkpt lat="45.99969" lon="6.56615">
        <ele>1995</ele>
        <time>2020-07-30T13:48:45Z</time>
      </trkpt>
      <trkpt lat="45.99951" lon="6.56625">
        <ele>1996</ele>
        <time>2020-07-30T13:48:55Z</time>
      </trkpt>
      <trkpt lat="45.99942" lon="6.56635">
        <ele>1998</ele>
        <time>2020-07-30T13:49:00Z</time>
      </trkpt>
      <trkpt lat="45.99908" lon="6.56653">
        <ele>2002</ele>
        <time>2020-07-30T13:49:19Z</time>
      </trkpt>
      <trkpt lat="45.99914" lon="6.5666">
        <ele>2004</ele>
        <time>2020-07-30T13:49:22Z</time>
      </trkpt>
      <trkpt lat="45.99915" lon="6.56672">
        <ele>2007</ele>
        <time>2020-07-30T13:49:27Z</time>
      </trkpt>
      <trkpt lat="45.99909" lon="6.5668">
        <ele>2007</ele>
        <time>2020-07-30T13:49:31Z</time>
      </trkpt>
      <trkpt lat="45.99907" lon="6.56702">
        <ele>2009</ele>
        <time>2020-07-30T13:49:38Z</time>
      </trkpt>
      <trkpt lat="45.99884" lon="6.56731">
        <ele>2012</ele>
        <time>2020-07-30T13:49:54Z</time>
      </trkpt>
      <trkpt lat="45.99886" lon="6.56715">
        <ele>2011</ele>
        <time>2020-07-30T13:49:59Z</time>
      </trkpt>
      <trkpt lat="45.99876" lon="6.56676">
        <ele>2008</ele>
        <time>2020-07-30T13:50:14Z</time>
      </trkpt>
      <trkpt lat="45.99879" lon="6.5665">
        <ele>2002</ele>
        <time>2020-07-30T13:50:23Z</time>
      </trkpt>
      <trkpt lat="45.9986" lon="6.56627">
        <ele>1997</ele>
        <time>2020-07-30T13:50:35Z</time>
      </trkpt>
      <trkpt lat="45.99854" lon="6.56594">
        <ele>1988</ele>
        <time>2020-07-30T13:50:47Z</time>
      </trkpt>
      <trkpt lat="45.9984" lon="6.5657">
        <ele>1984</ele>
        <time>2020-07-30T13:50:58Z</time>
      </trkpt>
      <trkpt lat="45.99825" lon="6.56502">
        <ele>1971</ele>
        <time>2020-07-30T13:51:23Z</time>
      </trkpt>
      <trkpt lat="45.9982" lon="6.56467">
        <ele>1966</ele>
        <time>2020-07-30T13:51:35Z</time>
      </trkpt>
      <trkpt lat="45.99816" lon="6.56456">
        <ele>1965</ele>
        <time>2020-07-30T13:51:40Z</time>
      </trkpt>
      <trkpt lat="45.99804" lon="6.56437">
        <ele>1964</ele>
        <time>2020-07-30T13:51:49Z</time>
      </trkpt>
      <trkpt lat="45.99797" lon="6.56405">
        <ele>1959</ele>
        <time>2020-07-30T13:52:00Z</time>
      </trkpt>
      <trkpt lat="45.99796" lon="6.56386">
        <ele>1957</ele>
        <time>2020-07-30T13:52:07Z</time>
      </trkpt>
      <trkpt lat="45.9978" lon="6.5634">
        <ele>1954</ele>
        <time>2020-07-30T13:52:25Z</time>
      </trkpt>
      <trkpt lat="45.99764" lon="6.56273">
        <ele>1954</ele>
        <time>2020-07-30T13:52:49Z</time>
      </trkpt>
      <trkpt lat="45.99764" lon="6.56208">
        <ele>1952</ele>
        <time>2020-07-30T13:53:12Z</time>
      </trkpt>
      <trkpt lat="45.99768" lon="6.56161">
        <ele>1948</ele>
        <time>2020-07-30T13:53:28Z</time>
      </trkpt>
      <trkpt lat="45.99779" lon="6.56095">
        <ele>1936</ele>
        <time>2020-07-30T13:53:52Z</time>
      </trkpt>
      <trkpt lat="45.99794" lon="6.56048">
        <ele>1924</ele>
        <time>2020-07-30T13:54:10Z</time>
      </trkpt>
      <trkpt lat="45.99799" lon="6.55996">
        <ele>1917</ele>
        <time>2020-07-30T13:54:28Z</time>
      </trkpt>
      <trkpt lat="45.99796" lon="6.55963">
        <ele>1913</ele>
        <time>2020-07-30T13:54:40Z</time>
      </trkpt>
      <trkpt lat="45.99771" lon="6.55937">
        <ele>1914</ele>
        <time>2020-07-30T13:54:55Z</time>
      </trkpt>
      <trkpt lat="45.99765" lon="6.55905">
        <ele>1908</ele>
        <time>2020-07-30T13:55:07Z</time>
      </trkpt>
      <trkpt lat="45.99761" lon="6.55895">
        <ele>1906</ele>
        <time>2020-07-30T13:55:11Z</time>
      </trkpt>
      <trkpt lat="45.99756" lon="6.55891">
        <ele>1905</ele>
        <time>2020-07-30T13:55:14Z</time>
      </trkpt>
      <trkpt lat="45.99742" lon="6.55888">
        <ele>1905</ele>
        <time>2020-07-30T13:55:21Z</time>
      </trkpt>
      <trkpt lat="45.997" lon="6.55862">
        <ele>1894</ele>
        <time>2020-07-30T13:55:44Z</time>
      </trkpt>
      <trkpt lat="45.99694" lon="6.55861">
        <ele>1894</ele>
        <time>2020-07-30T13:55:47Z</time>
      </trkpt>
      <trkpt lat="45.99679" lon="6.55849">
        <ele>1889</ele>
        <time>2020-07-30T13:55:55Z</time>
      </trkpt>
      <trkpt lat="45.99655" lon="6.55816">
        <ele>1877</ele>
        <time>2020-07-30T13:56:12Z</time>
      </trkpt>
      <trkpt lat="45.99644" lon="6.55809">
        <ele>1874</ele>
        <time>2020-07-30T13:56:18Z</time>
      </trkpt>
      <trkpt lat="45.99638" lon="6.55801">
        <ele>1871</ele>
        <time>2020-07-30T13:56:22Z</time>
      </trkpt>
      <trkpt lat="45.99563" lon="6.55764">
        <ele>1850</ele>
        <time>2020-07-30T13:57:02Z</time>
      </trkpt>
      <trkpt lat="45.99546" lon="6.55766">
        <ele>1848</ele>
        <time>2020-07-30T13:57:10Z</time>
      </trkpt>
      <trkpt lat="45.99509" lon="6.55749">
        <ele>1837</ele>
        <time>2020-07-30T13:57:30Z</time>
      </trkpt>
      <trkpt lat="45.99491" lon="6.55749">
        <ele>1834</ele>
        <time>2020-07-30T13:57:39Z</time>
      </trkpt>
      <trkpt lat="45.99484" lon="6.55734">
        <ele>1829</ele>
        <time>2020-07-30T13:57:45Z</time>
      </trkpt>
      <trkpt lat="45.99482" lon="6.55709">
        <ele>1823</ele>
        <time>2020-07-30T13:57:54Z</time>
      </trkpt>
      <trkpt lat="45.99478" lon="6.55697">
        <ele>1819</ele>
        <time>2020-07-30T13:57:58Z</time>
      </trkpt>
      <trkpt lat="45.99473" lon="6.55663">
        <ele>1810</ele>
        <time>2020-07-30T13:58:10Z</time>
      </trkpt>
      <trkpt lat="45.99452" lon="6.55647">
        <ele>1801</ele>
        <time>2020-07-30T13:58:22Z</time>
      </trkpt>
      <trkpt lat="45.99434" lon="6.5565">
        <ele>1798</ele>
        <time>2020-07-30T13:58:31Z</time>
      </trkpt>
      <trkpt lat="45.99413" lon="6.55649">
        <ele>1792</ele>
        <time>2020-07-30T13:58:42Z</time>
      </trkpt>
      <trkpt lat="45.99395" lon="6.55665">
        <ele>1789</ele>
        <time>2020-07-30T13:58:52Z</time>
      </trkpt>
      <trkpt lat="45.99368" lon="6.55702">
        <ele>1789</ele>
        <time>2020-07-30T13:59:11Z</time>
      </trkpt>
      <trkpt lat="45.99339" lon="6.55732">
        <ele>1787</ele>
        <time>2020-07-30T13:59:29Z</time>
      </trkpt>
      <trkpt lat="45.9931" lon="6.55754">
        <ele>1783</ele>
        <time>2020-07-30T13:59:45Z</time>
      </trkpt>
      <trkpt lat="45.99294" lon="6.55755">
        <ele>1779</ele>
        <time>2020-07-30T13:59:53Z</time>
      </trkpt>
      <trkpt lat="45.99285" lon="6.55745">
        <ele>1774</ele>
        <time>2020-07-30T13:59:59Z</time>
      </trkpt>
      <trkpt lat="45.99282" lon="6.55736">
        <ele>1771</ele>
        <time>2020-07-30T14:00:03Z</time>
      </trkpt>
      <trkpt lat="45.99282" lon="6.55722">
        <ele>1767</ele>
        <time>2020-07-30T14:00:07Z</time>
      </trkpt>
      <trkpt lat="45.9929" lon="6.5568">
        <ele>1759</ele>
        <time>2020-07-30T14:00:23Z</time>
      </trkpt>
      <trkpt lat="45.99293" lon="6.55646">
        <ele>1752</ele>
        <time>2020-07-30T14:00:34Z</time>
      </trkpt>
      <trkpt lat="45.99288" lon="6.55621">
        <ele>1745</ele>
        <time>2020-07-30T14:00:44Z</time>
      </trkpt>
      <trkpt lat="45.99285" lon="6.55619">
        <ele>1744</ele>
        <time>2020-07-30T14:00:45Z</time>
      </trkpt>
      <trkpt lat="45.99278" lon="6.55616">
        <ele>1741</ele>
        <time>2020-07-30T14:00:49Z</time>
      </trkpt>
      <trkpt lat="45.9927" lon="6.55618">
        <ele>1740</ele>
        <time>2020-07-30T14:00:53Z</time>
      </trkpt>
      <trkpt lat="45.99257" lon="6.55631">
        <ele>1739</ele>
        <time>2020-07-30T14:01:01Z</time>
      </trkpt>
      <trkpt lat="45.99227" lon="6.55616">
        <ele>1733</ele>
        <time>2020-07-30T14:01:17Z</time>
      </trkpt>
      <trkpt lat="45.99222" lon="6.55617">
        <ele>1733</ele>
        <time>2020-07-30T14:01:19Z</time>
      </trkpt>
      <trkpt lat="45.99182" lon="6.55634">
        <ele>1734</ele>
        <time>2020-07-30T14:01:40Z</time>
      </trkpt>
      <trkpt lat="45.99128" lon="6.55688">
        <ele>1745</ele>
        <time>2020-07-30T14:02:13Z</time>
      </trkpt>
      <trkpt lat="45.99106" lon="6.55686">
        <ele>1745</ele>
        <time>2020-07-30T14:02:24Z</time>
      </trkpt>
      <trkpt lat="45.9906" lon="6.55665">
        <ele>1743</ele>
        <time>2020-07-30T14:02:48Z</time>
      </trkpt>
      <trkpt lat="45.99042" lon="6.55652">
        <ele>1742</ele>
        <time>2020-07-30T14:02:58Z</time>
      </trkpt>
      <trkpt lat="45.99006" lon="6.55637">
        <ele>1743</ele>
        <time>2020-07-30T14:03:17Z</time>
      </trkpt>
      <trkpt lat="45.98991" lon="6.55624">
        <ele>1742</ele>
        <time>2020-07-30T14:03:26Z</time>
      </trkpt>
      <trkpt lat="45.98978" lon="6.5562">
        <ele>1744</ele>
        <time>2020-07-30T14:03:32Z</time>
      </trkpt>
      <trkpt lat="45.98966" lon="6.55628">
        <ele>1749</ele>
        <time>2020-07-30T14:03:39Z</time>
      </trkpt>
      <trkpt lat="45.98963" lon="6.55623">
        <ele>1748</ele>
        <time>2020-07-30T14:03:41Z</time>
      </trkpt>
      <trkpt lat="45.98947" lon="6.55614">
        <ele>1750</ele>
        <time>2020-07-30T14:03:50Z</time>
      </trkpt>
      <trkpt lat="45.98916" lon="6.55589">
        <ele>1753</ele>
        <time>2020-07-30T14:04:08Z</time>
      </trkpt>
      <trkpt lat="45.98905" lon="6.55584">
        <ele>1756</ele>
        <time>2020-07-30T14:04:14Z</time>
      </trkpt>
      <trkpt lat="45.98893" lon="6.55586">
        <ele>1761</ele>
        <time>2020-07-30T14:04:20Z</time>
      </trkpt>
      <trkpt lat="45.98888" lon="6.55584">
        <ele>1763</ele>
        <time>2020-07-30T14:04:22Z</time>
      </trkpt>
      <trkpt lat="45.98879" lon="6.55571">
        <ele>1762</ele>
        <time>2020-07-30T14:04:29Z</time>
      </trkpt>
      <trkpt lat="45.98859" lon="6.5555">
        <ele>1764</ele>
        <time>2020-07-30T14:04:41Z</time>
      </trkpt>
      <trkpt lat="45.98835" lon="6.55533">
        <ele>1770</ele>
        <time>2020-07-30T14:04:54Z</time>
      </trkpt>
      <trkpt lat="45.98814" lon="6.55503">
        <ele>1773</ele>
        <time>2020-07-30T14:05:09Z</time>
      </trkpt>
      <trkpt lat="45.98804" lon="6.55493">
        <ele>1774</ele>
        <time>2020-07-30T14:05:15Z</time>
      </trkpt>
      <trkpt lat="45.98789" lon="6.55463">
        <ele>1766</ele>
        <time>2020-07-30T14:05:28Z</time>
      </trkpt>
      <trkpt lat="45.98773" lon="6.55461">
        <ele>1771</ele>
        <time>2020-07-30T14:05:36Z</time>
      </trkpt>
      <trkpt lat="45.9876" lon="6.55455">
        <ele>1773</ele>
        <time>2020-07-30T14:05:43Z</time>
      </trkpt>
      <trkpt lat="45.98756" lon="6.55455">
        <ele>1775</ele>
        <time>2020-07-30T14:05:45Z</time>
      </trkpt>
      <trkpt lat="45.9875" lon="6.5546">
        <ele>1780</ele>
        <time>2020-07-30T14:05:48Z</time>
      </trkpt>
      <trkpt lat="45.98703" lon="6.55474">
        <ele>1774</ele>
        <time>2020-07-30T14:06:12Z</time>
      </trkpt>
      <trkpt lat="45.9867" lon="6.55489">
        <ele>1773</ele>
        <time>2020-07-30T14:06:30Z</time>
      </trkpt>
      <trkpt lat="45.98636" lon="6.55514">
        <ele>1769</ele>
        <time>2020-07-30T14:06:49Z</time>
      </trkpt>
      <trkpt lat="45.986" lon="6.55546">
        <ele>1763</ele>
        <time>2020-07-30T14:07:10Z</time>
      </trkpt>
      <trkpt lat="45.98586" lon="6.55552">
        <ele>1758</ele>
        <time>2020-07-30T14:07:17Z</time>
      </trkpt>
      <trkpt lat="45.98553" lon="6.55575">
        <ele>1755</ele>
        <time>2020-07-30T14:07:36Z</time>
      </trkpt>
      <trkpt lat="45.98527" lon="6.55599">
        <ele>1758</ele>
        <time>2020-07-30T14:07:51Z</time>
      </trkpt>
      <trkpt lat="45.98512" lon="6.55618">
        <ele>1763</ele>
        <time>2020-07-30T14:08:01Z</time>
      </trkpt>
      <trkpt lat="45.98504" lon="6.55635">
        <ele>1769</ele>
        <time>2020-07-30T14:08:08Z</time>
      </trkpt>
      <trkpt lat="45.98486" lon="6.55657">
        <ele>1776</ele>
        <time>2020-07-30T14:08:20Z</time>
      </trkpt>
      <trkpt lat="45.98481" lon="6.55671">
        <ele>1782</ele>
        <time>2020-07-30T14:08:26Z</time>
      </trkpt>
      <trkpt lat="45.98477" lon="6.55671">
        <ele>1782</ele>
        <time>2020-07-30T14:08:28Z</time>
      </trkpt>
      <trkpt lat="45.98471" lon="6.55666">
        <ele>1779</ele>
        <time>2020-07-30T14:08:31Z</time>
      </trkpt>
      <trkpt lat="45.98463" lon="6.5564">
        <ele>1765</ele>
        <time>2020-07-30T14:08:41Z</time>
      </trkpt>
      <trkpt lat="45.98452" lon="6.55623">
        <ele>1756</ele>
        <time>2020-07-30T14:08:49Z</time>
      </trkpt>
      <trkpt lat="45.98437" lon="6.55611">
        <ele>1750</ele>
        <time>2020-07-30T14:08:58Z</time>
      </trkpt>
      <trkpt lat="45.98423" lon="6.55587">
        <ele>1739</ele>
        <time>2020-07-30T14:09:08Z</time>
      </trkpt>
      <trkpt lat="45.98407" lon="6.5558">
        <ele>1734</ele>
        <time>2020-07-30T14:09:17Z</time>
      </trkpt>
      <trkpt lat="45.98401" lon="6.55567">
        <ele>1728</ele>
        <time>2020-07-30T14:09:22Z</time>
      </trkpt>
      <trkpt lat="45.98394" lon="6.5556">
        <ele>1724</ele>
        <time>2020-07-30T14:09:27Z</time>
      </trkpt>
      <trkpt lat="45.98378" lon="6.55556">
        <ele>1722</ele>
        <time>2020-07-30T14:09:35Z</time>
      </trkpt>
      <trkpt lat="45.98364" lon="6.55546">
        <ele>1717</ele>
        <time>2020-07-30T14:09:42Z</time>
      </trkpt>
      <trkpt lat="45.98351" lon="6.55558">
        <ele>1721</ele>
        <time>2020-07-30T14:09:50Z</time>
      </trkpt>
      <trkpt lat="45.98342" lon="6.55571">
        <ele>1724</ele>
        <time>2020-07-30T14:09:57Z</time>
      </trkpt>
      <trkpt lat="45.98332" lon="6.55577">
        <ele>1725</ele>
        <time>2020-07-30T14:10:02Z</time>
      </trkpt>
      <trkpt lat="45.98306" lon="6.55586">
        <ele>1719</ele>
        <time>2020-07-30T14:10:15Z</time>
      </trkpt>
      <trkpt lat="45.98296" lon="6.55581">
        <ele>1715</ele>
        <time>2020-07-30T14:10:21Z</time>
      </trkpt>
      <trkpt lat="45.98284" lon="6.55562">
        <ele>1706</ele>
        <time>2020-07-30T14:10:30Z</time>
      </trkpt>
      <trkpt lat="45.98279" lon="6.55537">
        <ele>1697</ele>
        <time>2020-07-30T14:10:39Z</time>
      </trkpt>
      <trkpt lat="45.98281" lon="6.55522">
        <ele>1693</ele>
        <time>2020-07-30T14:10:44Z</time>
      </trkpt>
      <trkpt lat="45.98279" lon="6.55515">
        <ele>1691</ele>
        <time>2020-07-30T14:10:47Z</time>
      </trkpt>
      <trkpt lat="45.98258" lon="6.55468">
        <ele>1673</ele>
        <time>2020-07-30T14:11:06Z</time>
      </trkpt>
      <trkpt lat="45.98246" lon="6.55421">
        <ele>1660</ele>
        <time>2020-07-30T14:11:23Z</time>
      </trkpt>
      <trkpt lat="45.98238" lon="6.55408">
        <ele>1655</ele>
        <time>2020-07-30T14:11:30Z</time>
      </trkpt>
      <trkpt lat="45.98228" lon="6.55404">
        <ele>1651</ele>
        <time>2020-07-30T14:11:35Z</time>
      </trkpt>
      <trkpt lat="45.98201" lon="6.55422">
        <ele>1650</ele>
        <time>2020-07-30T14:11:50Z</time>
      </trkpt>
      <trkpt lat="45.98185" lon="6.55426">
        <ele>1647</ele>
        <time>2020-07-30T14:11:58Z</time>
      </trkpt>
      <trkpt lat="45.9817" lon="6.55422">
        <ele>1643</ele>
        <time>2020-07-30T14:12:05Z</time>
      </trkpt>
      <trkpt lat="45.98148" lon="6.55426">
        <ele>1646</ele>
        <time>2020-07-30T14:12:16Z</time>
      </trkpt>
      <trkpt lat="45.98147" lon="6.55422">
        <ele>1645</ele>
        <time>2020-07-30T14:12:18Z</time>
      </trkpt>
      <trkpt lat="45.98136" lon="6.55411">
        <ele>1644</ele>
        <time>2020-07-30T14:12:25Z</time>
      </trkpt>
      <trkpt lat="45.98128" lon="6.55372">
        <ele>1637</ele>
        <time>2020-07-30T14:12:39Z</time>
      </trkpt>
      <trkpt lat="45.98128" lon="6.55352">
        <ele>1632</ele>
        <time>2020-07-30T14:12:46Z</time>
      </trkpt>
      <trkpt lat="45.98125" lon="6.55336">
        <ele>1630</ele>
        <time>2020-07-30T14:12:51Z</time>
      </trkpt>
      <trkpt lat="45.98109" lon="6.55295">
        <ele>1627</ele>
        <time>2020-07-30T14:13:08Z</time>
      </trkpt>
      <trkpt lat="45.98112" lon="6.55276">
        <ele>1624</ele>
        <time>2020-07-30T14:13:15Z</time>
      </trkpt>
      <trkpt lat="45.98116" lon="6.55267">
        <ele>1622</ele>
        <time>2020-07-30T14:13:18Z</time>
      </trkpt>
      <trkpt lat="45.98117" lon="6.55244">
        <ele>1620</ele>
        <time>2020-07-30T14:13:26Z</time>
      </trkpt>
      <trkpt lat="45.98108" lon="6.55223">
        <ele>1621</ele>
        <time>2020-07-30T14:13:35Z</time>
      </trkpt>
      <trkpt lat="45.98102" lon="6.55174">
        <ele>1620</ele>
        <time>2020-07-30T14:13:52Z</time>
      </trkpt>
      <trkpt lat="45.98097" lon="6.55169">
        <ele>1621</ele>
        <time>2020-07-30T14:13:55Z</time>
      </trkpt>
      <trkpt lat="45.98091" lon="6.55172">
        <ele>1623</ele>
        <time>2020-07-30T14:13:58Z</time>
      </trkpt>
      <trkpt lat="45.98086" lon="6.55168">
        <ele>1624</ele>
        <time>2020-07-30T14:14:01Z</time>
      </trkpt>
      <trkpt lat="45.98079" lon="6.55152">
        <ele>1623</ele>
        <time>2020-07-30T14:14:08Z</time>
      </trkpt>
      <trkpt lat="45.98056" lon="6.55117">
        <ele>1622</ele>
        <time>2020-07-30T14:14:25Z</time>
      </trkpt>
      <trkpt lat="45.98015" lon="6.55094">
        <ele>1620</ele>
        <time>2020-07-30T14:14:47Z</time>
      </trkpt>
      <trkpt lat="45.98008" lon="6.5508">
        <ele>1617</ele>
        <time>2020-07-30T14:14:53Z</time>
      </trkpt>
      <trkpt lat="45.9799" lon="6.55069">
        <ele>1618</ele>
        <time>2020-07-30T14:15:02Z</time>
      </trkpt>
      <trkpt lat="45.97925" lon="6.54944">
        <ele>1594</ele>
        <time>2020-07-30T14:15:57Z</time>
      </trkpt>
      <trkpt lat="45.97917" lon="6.5492">
        <ele>1587</ele>
        <time>2020-07-30T14:16:06Z</time>
      </trkpt>
      <trkpt lat="45.97915" lon="6.549">
        <ele>1581</ele>
        <time>2020-07-30T14:16:13Z</time>
      </trkpt>
      <trkpt lat="45.9791" lon="6.54884">
        <ele>1579</ele>
        <time>2020-07-30T14:16:19Z</time>
      </trkpt>
      <trkpt lat="45.97886" lon="6.54833">
        <ele>1571</ele>
        <time>2020-07-30T14:16:41Z</time>
      </trkpt>
      <trkpt lat="45.97856" lon="6.54812">
        <ele>1574</ele>
        <time>2020-07-30T14:16:57Z</time>
      </trkpt>
      <trkpt lat="45.97853" lon="6.54806">
        <ele>1572</ele>
        <time>2020-07-30T14:17:00Z</time>
      </trkpt>
      <trkpt lat="45.97847" lon="6.54804">
        <ele>1574</ele>
        <time>2020-07-30T14:17:03Z</time>
      </trkpt>
      <trkpt lat="45.97835" lon="6.54794">
        <ele>1574</ele>
        <time>2020-07-30T14:17:10Z</time>
      </trkpt>
      <trkpt lat="45.97827" lon="6.54792">
        <ele>1576</ele>
        <time>2020-07-30T14:17:14Z</time>
      </trkpt>
      <trkpt lat="45.97786" lon="6.54771">
        <ele>1580</ele>
        <time>2020-07-30T14:17:36Z</time>
      </trkpt>
      <trkpt lat="45.97771" lon="6.54767">
        <ele>1584</ele>
        <time>2020-07-30T14:17:43Z</time>
      </trkpt>
      <trkpt lat="45.97747" lon="6.54748">
        <ele>1584</ele>
        <time>2020-07-30T14:17:57Z</time>
      </trkpt>
      <trkpt lat="45.97715" lon="6.54734">
        <ele>1587</ele>
        <time>2020-07-30T14:18:14Z</time>
      </trkpt>
      <trkpt lat="45.97707" lon="6.54721">
        <ele>1583</ele>
        <time>2020-07-30T14:18:20Z</time>
      </trkpt>
      <trkpt lat="45.97679" lon="6.54717">
        <ele>1592</ele>
        <time>2020-07-30T14:18:34Z</time>
      </trkpt>
      <trkpt lat="45.97662" lon="6.54696">
        <ele>1589</ele>
        <time>2020-07-30T14:18:45Z</time>
      </trkpt>
      <trkpt lat="45.9765" lon="6.54689">
        <ele>1588</ele>
        <time>2020-07-30T14:18:52Z</time>
      </trkpt>
      <trkpt lat="45.97628" lon="6.54688">
        <ele>1592</ele>
        <time>2020-07-30T14:19:03Z</time>
      </trkpt>
      <trkpt lat="45.97613" lon="6.54692">
        <ele>1596</ele>
        <time>2020-07-30T14:19:10Z</time>
      </trkpt>
      <trkpt lat="45.97596" lon="6.54683">
        <ele>1596</ele>
        <time>2020-07-30T14:19:19Z</time>
      </trkpt>
      <trkpt lat="45.97592" lon="6.54678">
        <ele>1595</ele>
        <time>2020-07-30T14:19:22Z</time>
      </trkpt>
      <trkpt lat="45.97552" lon="6.54651">
        <ele>1604</ele>
        <time>2020-07-30T14:19:44Z</time>
      </trkpt>
      <trkpt lat="45.9755" lon="6.54637">
        <ele>1603</ele>
        <time>2020-07-30T14:19:49Z</time>
      </trkpt>
      <trkpt lat="45.97538" lon="6.54618">
        <ele>1605</ele>
        <time>2020-07-30T14:19:58Z</time>
      </trkpt>
      <trkpt lat="45.9753" lon="6.54594">
        <ele>1604</ele>
        <time>2020-07-30T14:20:07Z</time>
      </trkpt>
      <trkpt lat="45.97526" lon="6.5457">
        <ele>1604</ele>
        <time>2020-07-30T14:20:16Z</time>
      </trkpt>
      <trkpt lat="45.97531" lon="6.54551">
        <ele>1602</ele>
        <time>2020-07-30T14:20:23Z</time>
      </trkpt>
      <trkpt lat="45.97545" lon="6.5453">
        <ele>1596</ele>
        <time>2020-07-30T14:20:33Z</time>
      </trkpt>
      <trkpt lat="45.97561" lon="6.5449">
        <ele>1588</ele>
        <time>2020-07-30T14:20:49Z</time>
      </trkpt>
      <trkpt lat="45.97563" lon="6.54476">
        <ele>1588</ele>
        <time>2020-07-30T14:20:54Z</time>
      </trkpt>
      <trkpt lat="45.97557" lon="6.54445">
        <ele>1593</ele>
        <time>2020-07-30T14:21:05Z</time>
      </trkpt>
      <trkpt lat="45.9754" lon="6.544">
        <ele>1598</ele>
        <time>2020-07-30T14:21:23Z</time>
      </trkpt>
      <trkpt lat="45.97511" lon="6.54351">
        <ele>1602</ele>
        <time>2020-07-30T14:21:45Z</time>
      </trkpt>
      <trkpt lat="45.97508" lon="6.54341">
        <ele>1601</ele>
        <time>2020-07-30T14:21:49Z</time>
      </trkpt>
      <trkpt lat="45.97491" lon="6.54311">
        <ele>1599</ele>
        <time>2020-07-30T14:22:03Z</time>
      </trkpt>
      <trkpt lat="45.97477" lon="6.5429">
        <ele>1597</ele>
        <time>2020-07-30T14:22:13Z</time>
      </trkpt>
      <trkpt lat="45.97456" lon="6.54263">
        <ele>1593</ele>
        <time>2020-07-30T14:22:27Z</time>
      </trkpt>
      <trkpt lat="45.97444" lon="6.54251">
        <ele>1592</ele>
        <time>2020-07-30T14:22:34Z</time>
      </trkpt>
      <trkpt lat="45.97429" lon="6.54242">
        <ele>1592</ele>
        <time>2020-07-30T14:22:42Z</time>
      </trkpt>
      <trkpt lat="45.9742" lon="6.54232">
        <ele>1591</ele>
        <time>2020-07-30T14:22:48Z</time>
      </trkpt>
      <trkpt lat="45.97397" lon="6.54198">
        <ele>1587</ele>
        <time>2020-07-30T14:23:04Z</time>
      </trkpt>
      <trkpt lat="45.97383" lon="6.54182">
        <ele>1585</ele>
        <time>2020-07-30T14:23:13Z</time>
      </trkpt>
      <trkpt lat="45.97354" lon="6.54171">
        <ele>1585</ele>
        <time>2020-07-30T14:23:28Z</time>
      </trkpt>
      <trkpt lat="45.9734" lon="6.54148">
        <ele>1579</ele>
        <time>2020-07-30T14:23:39Z</time>
      </trkpt>
      <trkpt lat="45.97322" lon="6.54108">
        <ele>1569</ele>
        <time>2020-07-30T14:23:56Z</time>
      </trkpt>
      <trkpt lat="45.97304" lon="6.54086">
        <ele>1567</ele>
        <time>2020-07-30T14:24:07Z</time>
      </trkpt>
      <trkpt lat="45.97289" lon="6.54072">
        <ele>1567</ele>
        <time>2020-07-30T14:24:16Z</time>
      </trkpt>
      <trkpt lat="45.97277" lon="6.54055">
        <ele>1566</ele>
        <time>2020-07-30T14:24:25Z</time>
      </trkpt>
      <trkpt lat="45.97269" lon="6.54033">
        <ele>1562</ele>
        <time>2020-07-30T14:24:33Z</time>
      </trkpt>
      <trkpt lat="45.97245" lon="6.54004">
        <ele>1562</ele>
        <time>2020-07-30T14:24:49Z</time>
      </trkpt>
      <trkpt lat="45.97232" lon="6.53983">
        <ele>1561</ele>
        <time>2020-07-30T14:24:59Z</time>
      </trkpt>
      <trkpt lat="45.97226" lon="6.53967">
        <ele>1558</ele>
        <time>2020-07-30T14:25:05Z</time>
      </trkpt>
      <trkpt lat="45.97217" lon="6.53953">
        <ele>1556</ele>
        <time>2020-07-30T14:25:12Z</time>
      </trkpt>
      <trkpt lat="45.97215" lon="6.53934">
        <ele>1551</ele>
        <time>2020-07-30T14:25:19Z</time>
      </trkpt>
      <trkpt lat="45.97201" lon="6.53904">
        <ele>1545</ele>
        <time>2020-07-30T14:25:31Z</time>
      </trkpt>
      <trkpt lat="45.97199" lon="6.53894">
        <ele>1542</ele>
        <time>2020-07-30T14:25:35Z</time>
      </trkpt>
      <trkpt lat="45.97211" lon="6.53854">
        <ele>1530</ele>
        <time>2020-07-30T14:25:50Z</time>
      </trkpt>
      <trkpt lat="45.97212" lon="6.53834">
        <ele>1525</ele>
        <time>2020-07-30T14:25:57Z</time>
      </trkpt>
      <trkpt lat="45.97202" lon="6.53823">
        <ele>1524</ele>
        <time>2020-07-30T14:26:03Z</time>
      </trkpt>
      <trkpt lat="45.97188" lon="6.53816">
        <ele>1525</ele>
        <time>2020-07-30T14:26:11Z</time>
      </trkpt>
      <trkpt lat="45.97166" lon="6.5381">
        <ele>1527</ele>
        <time>2020-07-30T14:26:22Z</time>
      </trkpt>
      <trkpt lat="45.97158" lon="6.53813">
        <ele>1530</ele>
        <time>2020-07-30T14:26:26Z</time>
      </trkpt>
      <trkpt lat="45.97126" lon="6.53807">
        <ele>1540</ele>
        <time>2020-07-30T14:26:42Z</time>
      </trkpt>
      <trkpt lat="45.97125" lon="6.53809">
        <ele>1541</ele>
        <time>2020-07-30T14:26:43Z</time>
      </trkpt>
      <trkpt lat="45.97112" lon="6.53811">
        <ele>1546</ele>
        <time>2020-07-30T14:26:49Z</time>
      </trkpt>
      <trkpt lat="45.97107" lon="6.53818">
        <ele>1548</ele>
        <time>2020-07-30T14:26:53Z</time>
      </trkpt>
      <trkpt lat="45.97107" lon="6.53823">
        <ele>1549</ele>
        <time>2020-07-30T14:26:55Z</time>
      </trkpt>
      <trkpt lat="45.971" lon="6.53831">
        <ele>1552</ele>
        <time>2020-07-30T14:26:59Z</time>
      </trkpt>
      <trkpt lat="45.97094" lon="6.53832">
        <ele>1554</ele>
        <time>2020-07-30T14:27:02Z</time>
      </trkpt>
      <trkpt lat="45.97083" lon="6.53821">
        <ele>1557</ele>
        <time>2020-07-30T14:27:09Z</time>
      </trkpt>
      <trkpt lat="45.97081" lon="6.53822">
        <ele>1558</ele>
        <time>2020-07-30T14:27:10Z</time>
      </trkpt>
      <trkpt lat="45.9708" lon="6.53838">
        <ele>1561</ele>
        <time>2020-07-30T14:27:16Z</time>
      </trkpt>
      <trkpt lat="45.97083" lon="6.53845">
        <ele>1562</ele>
        <time>2020-07-30T14:27:18Z</time>
      </trkpt>
      <trkpt lat="45.97081" lon="6.53856">
        <ele>1566</ele>
        <time>2020-07-30T14:27:22Z</time>
      </trkpt>
      <trkpt lat="45.97086" lon="6.53867">
        <ele>1568</ele>
        <time>2020-07-30T14:27:27Z</time>
      </trkpt>
      <trkpt lat="45.97085" lon="6.53873">
        <ele>1570</ele>
        <time>2020-07-30T14:27:29Z</time>
      </trkpt>
      <trkpt lat="45.97096" lon="6.53884">
        <ele>1569</ele>
        <time>2020-07-30T14:27:36Z</time>
      </trkpt>
      <trkpt lat="45.97098" lon="6.53894">
        <ele>1572</ele>
        <time>2020-07-30T14:27:39Z</time>
      </trkpt>
      <trkpt lat="45.97106" lon="6.53907">
        <ele>1573</ele>
        <time>2020-07-30T14:27:45Z</time>
      </trkpt>
      <trkpt lat="45.97105" lon="6.5391">
        <ele>1574</ele>
        <time>2020-07-30T14:27:47Z</time>
      </trkpt>
      <trkpt lat="45.97096" lon="6.53912">
        <ele>1578</ele>
        <time>2020-07-30T14:27:51Z</time>
      </trkpt>
      <trkpt lat="45.97082" lon="6.53909">
        <ele>1582</ele>
        <time>2020-07-30T14:27:58Z</time>
      </trkpt>
      <trkpt lat="45.97073" lon="6.53904">
        <ele>1584</ele>
        <time>2020-07-30T14:28:03Z</time>
      </trkpt>
      <trkpt lat="45.97068" lon="6.53904">
        <ele>1586</ele>
        <time>2020-07-30T14:28:06Z</time>
      </trkpt>
      <trkpt lat="45.97063" lon="6.53909">
        <ele>1590</ele>
        <time>2020-07-30T14:28:09Z</time>
      </trkpt>
      <trkpt lat="45.9706" lon="6.53909">
        <ele>1591</ele>
        <time>2020-07-30T14:28:10Z</time>
      </trkpt>
      <trkpt lat="45.97049" lon="6.53891">
        <ele>1591</ele>
        <time>2020-07-30T14:28:18Z</time>
      </trkpt>
      <trkpt lat="45.97042" lon="6.53889">
        <ele>1594</ele>
        <time>2020-07-30T14:28:22Z</time>
      </trkpt>
      <trkpt lat="45.9704" lon="6.53884">
        <ele>1593</ele>
        <time>2020-07-30T14:28:24Z</time>
      </trkpt>
      <trkpt lat="45.97024" lon="6.5387">
        <ele>1598</ele>
        <time>2020-07-30T14:28:33Z</time>
      </trkpt>
      <trkpt lat="45.97023" lon="6.53888">
        <ele>1602</ele>
        <time>2020-07-30T14:28:40Z</time>
      </trkpt>
      <trkpt lat="45.97027" lon="6.53909">
        <ele>1604</ele>
        <time>2020-07-30T14:28:47Z</time>
      </trkpt>
      <trkpt lat="45.97025" lon="6.53912">
        <ele>1605</ele>
        <time>2020-07-30T14:28:49Z</time>
      </trkpt>
      <trkpt lat="45.96997" lon="6.53889">
        <ele>1614</ele>
        <time>2020-07-30T14:29:05Z</time>
      </trkpt>
      <trkpt lat="45.96974" lon="6.53882">
        <ele>1625</ele>
        <time>2020-07-30T14:29:17Z</time>
      </trkpt>
      <trkpt lat="45.96956" lon="6.53891">
        <ele>1636</ele>
        <time>2020-07-30T14:29:26Z</time>
      </trkpt>
      <trkpt lat="45.96951" lon="6.53884">
        <ele>1638</ele>
        <time>2020-07-30T14:29:30Z</time>
      </trkpt>
      <trkpt lat="45.96943" lon="6.5388">
        <ele>1641</ele>
        <time>2020-07-30T14:29:34Z</time>
      </trkpt>
      <trkpt lat="45.96944" lon="6.53889">
        <ele>1642</ele>
        <time>2020-07-30T14:29:37Z</time>
      </trkpt>
      <trkpt lat="45.96941" lon="6.5389">
        <ele>1644</ele>
        <time>2020-07-30T14:29:39Z</time>
      </trkpt>
      <trkpt lat="45.96933" lon="6.53883">
        <ele>1647</ele>
        <time>2020-07-30T14:29:43Z</time>
      </trkpt>
      <trkpt lat="45.96928" lon="6.53883">
        <ele>1650</ele>
        <time>2020-07-30T14:29:46Z</time>
      </trkpt>
      <trkpt lat="45.96924" lon="6.53879">
        <ele>1651</ele>
        <time>2020-07-30T14:29:48Z</time>
      </trkpt>
      <trkpt lat="45.96912" lon="6.53876">
        <ele>1657</ele>
        <time>2020-07-30T14:29:54Z</time>
      </trkpt>
      <trkpt lat="45.96906" lon="6.5388">
        <ele>1660</ele>
        <time>2020-07-30T14:29:58Z</time>
      </trkpt>
      <trkpt lat="45.96895" lon="6.53876">
        <ele>1664</ele>
        <time>2020-07-30T14:30:03Z</time>
      </trkpt>
      <trkpt lat="45.96889" lon="6.5387">
        <ele>1666</ele>
        <time>2020-07-30T14:30:07Z</time>
      </trkpt>
      <trkpt lat="45.96873" lon="6.53871">
        <ele>1673</ele>
        <time>2020-07-30T14:30:15Z</time>
      </trkpt>
      <trkpt lat="45.96859" lon="6.53867">
        <ele>1679</ele>
        <time>2020-07-30T14:30:22Z</time>
      </trkpt>
      <trkpt lat="45.96841" lon="6.53869">
        <ele>1688</ele>
        <time>2020-07-30T14:30:31Z</time>
      </trkpt>
      <trkpt lat="45.96835" lon="6.53865">
        <ele>1690</ele>
        <time>2020-07-30T14:30:34Z</time>
      </trkpt>
      <trkpt lat="45.96822" lon="6.5387">
        <ele>1694</ele>
        <time>2020-07-30T14:30:41Z</time>
      </trkpt>
      <trkpt lat="45.96807" lon="6.53861">
        <ele>1698</ele>
        <time>2020-07-30T14:30:49Z</time>
      </trkpt>
      <trkpt lat="45.96793" lon="6.53863">
        <ele>1703</ele>
        <time>2020-07-30T14:30:56Z</time>
      </trkpt>
      <trkpt lat="45.96777" lon="6.53858">
        <ele>1707</ele>
        <time>2020-07-30T14:31:05Z</time>
      </trkpt>
      <trkpt lat="45.96764" lon="6.53861">
        <ele>1711</ele>
        <time>2020-07-30T14:31:11Z</time>
      </trkpt>
      <trkpt lat="45.96761" lon="6.53859">
        <ele>1712</ele>
        <time>2020-07-30T14:31:13Z</time>
      </trkpt>
      <trkpt lat="45.96756" lon="6.53862">
        <ele>1714</ele>
        <time>2020-07-30T14:31:16Z</time>
      </trkpt>
      <trkpt lat="45.96752" lon="6.53861">
        <ele>1715</ele>
        <time>2020-07-30T14:31:18Z</time>
      </trkpt>
      <trkpt lat="45.96717" lon="6.53869">
        <ele>1729</ele>
        <time>2020-07-30T14:31:35Z</time>
      </trkpt>
      <trkpt lat="45.96711" lon="6.53874">
        <ele>1731</ele>
        <time>2020-07-30T14:31:39Z</time>
      </trkpt>
      <trkpt lat="45.967" lon="6.53869">
        <ele>1735</ele>
        <time>2020-07-30T14:31:45Z</time>
      </trkpt>
      <trkpt lat="45.96694" lon="6.53871">
        <ele>1738</ele>
        <time>2020-07-30T14:31:48Z</time>
      </trkpt>
      <trkpt lat="45.96688" lon="6.53869">
        <ele>1740</ele>
        <time>2020-07-30T14:31:51Z</time>
      </trkpt>
      <trkpt lat="45.96684" lon="6.53873">
        <ele>1742</ele>
        <time>2020-07-30T14:31:53Z</time>
      </trkpt>
      <trkpt lat="45.96679" lon="6.53872">
        <ele>1744</ele>
        <time>2020-07-30T14:31:56Z</time>
      </trkpt>
      <trkpt lat="45.96676" lon="6.53874">
        <ele>1745</ele>
        <time>2020-07-30T14:31:57Z</time>
      </trkpt>
      <trkpt lat="45.96668" lon="6.5387">
        <ele>1748</ele>
        <time>2020-07-30T14:32:02Z</time>
      </trkpt>
      <trkpt lat="45.96662" lon="6.53871">
        <ele>1751</ele>
        <time>2020-07-30T14:32:05Z</time>
      </trkpt>
      <trkpt lat="45.96659" lon="6.53867">
        <ele>1752</ele>
        <time>2020-07-30T14:32:07Z</time>
      </trkpt>
      <trkpt lat="45.9664" lon="6.53873">
        <ele>1762</ele>
        <time>2020-07-30T14:32:16Z</time>
      </trkpt>
      <trkpt lat="45.96619" lon="6.53867">
        <ele>1772</ele>
        <time>2020-07-30T14:32:27Z</time>
      </trkpt>
      <trkpt lat="45.96608" lon="6.53869">
        <ele>1778</ele>
        <time>2020-07-30T14:32:33Z</time>
      </trkpt>
      <trkpt lat="45.96591" lon="6.53862">
        <ele>1786</ele>
        <time>2020-07-30T14:32:41Z</time>
      </trkpt>
      <trkpt lat="45.96574" lon="6.53868">
        <ele>1797</ele>
        <time>2020-07-30T14:32:50Z</time>
      </trkpt>
      <trkpt lat="45.96567" lon="6.53867">
        <ele>1801</ele>
        <time>2020-07-30T14:32:54Z</time>
      </trkpt>
      <trkpt lat="45.96556" lon="6.5386">
        <ele>1809</ele>
        <time>2020-07-30T14:33:00Z</time>
      </trkpt>
      <trkpt lat="45.96541" lon="6.5386">
        <ele>1819</ele>
        <time>2020-07-30T14:33:07Z</time>
      </trkpt>
      <trkpt lat="45.96529" lon="6.53863">
        <ele>1827</ele>
        <time>2020-07-30T14:33:13Z</time>
      </trkpt>
      <trkpt lat="45.96519" lon="6.53859">
        <ele>1833</ele>
        <time>2020-07-30T14:33:19Z</time>
      </trkpt>
      <trkpt lat="45.96503" lon="6.53859">
        <ele>1844</ele>
        <time>2020-07-30T14:33:27Z</time>
      </trkpt>
      <trkpt lat="45.96498" lon="6.53861">
        <ele>1848</ele>
        <time>2020-07-30T14:33:29Z</time>
      </trkpt>
      <trkpt lat="45.96482" lon="6.53851">
        <ele>1861</ele>
        <time>2020-07-30T14:33:38Z</time>
      </trkpt>
      <trkpt lat="45.96473" lon="6.5385">
        <ele>1869</ele>
        <time>2020-07-30T14:33:42Z</time>
      </trkpt>
      <trkpt lat="45.96469" lon="6.53845">
        <ele>1872</ele>
        <time>2020-07-30T14:33:45Z</time>
      </trkpt>
      <trkpt lat="45.96462" lon="6.53846">
        <ele>1878</ele>
        <time>2020-07-30T14:33:49Z</time>
      </trkpt>
      <trkpt lat="45.96451" lon="6.53838">
        <ele>1888</ele>
        <time>2020-07-30T14:33:55Z</time>
      </trkpt>
      <trkpt lat="45.96444" lon="6.53838">
        <ele>1894</ele>
        <time>2020-07-30T14:33:58Z</time>
      </trkpt>
      <trkpt lat="45.9643" lon="6.53826">
        <ele>1907</ele>
        <time>2020-07-30T14:34:06Z</time>
      </trkpt>
      <trkpt lat="45.96415" lon="6.53802">
        <ele>1920</ele>
        <time>2020-07-30T14:34:18Z</time>
      </trkpt>
      <trkpt lat="45.96413" lon="6.53805">
        <ele>1919</ele>
        <time>2020-07-30T14:34:19Z</time>
      </trkpt>
      <trkpt lat="45.96407" lon="6.53803">
        <ele>1919</ele>
        <time>2020-07-30T14:34:22Z</time>
      </trkpt>
      <trkpt lat="45.96404" lon="6.53805">
        <ele>1919</ele>
        <time>2020-07-30T14:34:24Z</time>
      </trkpt>
      <trkpt lat="45.964" lon="6.53814">
        <ele>1918</ele>
        <time>2020-07-30T14:34:28Z</time>
      </trkpt>
      <trkpt lat="45.96397" lon="6.53814">
        <ele>1918</ele>
        <time>2020-07-30T14:34:29Z</time>
      </trkpt>
      <trkpt lat="45.96396" lon="6.5381">
        <ele>1918</ele>
        <time>2020-07-30T14:34:31Z</time>
      </trkpt>
      <trkpt lat="45.96393" lon="6.53813">
        <ele>1918</ele>
        <time>2020-07-30T14:34:32Z</time>
      </trkpt>
      <trkpt lat="45.96387" lon="6.53806">
        <ele>1918</ele>
        <time>2020-07-30T14:34:36Z</time>
      </trkpt>
      <trkpt lat="45.96383" lon="6.53808">
        <ele>1918</ele>
        <time>2020-07-30T14:34:38Z</time>
      </trkpt>
      <trkpt lat="45.96382" lon="6.53794">
        <ele>1917</ele>
        <time>2020-07-30T14:34:43Z</time>
      </trkpt>
    </trkseg>
  </trk>
</gpx>